Tongo Airport

Jump to: basic info | weather | comments

Related pages: nearby airports | nearby navaids | notams | map

Basic information (top)

Codes: GFTO
Location: lon 8.217000, lat -11.067000, elev 750 ft / 229 m msl
Status: small_airport

Weather (top)

Current conditions for Roberts International Airport 126nm (234km) SSE (rec'd 2014/10/30 15:30Z):

GLRB 301530Z 20008KT 9999 TS BKN020 FEW027 CB 29/25 Q1010 RMK CB-NE/NW TEMPO TS

Airport forecast for Roberts International Airport 126nm (234km) SSE (rec'd 2014/10/30 12:54Z):

TAF TAF GLRB 301000Z 3012/3118 20010KT 8000 TSRA/TS SCT005 BKN016 FEW026CB 
      TEMPO 3015/3020 24008KT 7000 FM 302100 00000KT 9999 BKN014 FEW024CB 
      BECMG 3102/3104 02004KT 9999

Latest comments (top)

No comments yet for Tongo Airport

More... (top)

See also NOTAMs and nearby airports and navaids, or visit the Tongo Airport page at the main OurAirports website..